sensor_id;sensor_type;location;lat;lon;timestamp;pressure;altitude;pressure_sealevel;temperature;humidity
58973;BME280;44750;52.040;7.472;2024-03-23T05:00:58;102037.72;;;5.05;100.00
58973;BME280;44750;52.040;7.472;2024-03-23T05:05:58;102041.66;;;5.31;nan
58973;BME280;44750;52.040;7.472;2024-03-23T05:10:58;102090.09;;;5.62;nan
58973;BME280;44750;52.040;7.472;2024-03-23T05:15:58;102136.03;;;5.73;nan
58973;BME280;44750;52.040;7.472;2024-03-23T05:20:59;102207.53;;;5.92;nan
58973;BME280;44750;52.040;7.472;2024-03-23T05:25:59;102223.66;;;5.92;nan
58973;BME280;44750;52.040;7.472;2024-03-23T05:30:59;102259.50;;;5.92;nan
58973;BME280;44750;52.040;7.472;2024-03-23T05:36:01;102295.94;;;5.98;nan
58973;BME280;44750;52.040;7.472;2024-03-23T05:41:01;102277.38;;;5.93;nan
58973;BME280;44750;52.040;7.472;2024-03-23T05:46:02;102261.16;;;5.95;nan
58973;BME280;44750;52.040;7.472;2024-03-23T05:51:03;102260.81;;;6.01;nan
58973;BME280;44750;52.040;7.472;2024-03-23T05:56:03;102240.28;;;6.00;nan
58973;BME280;44750;52.040;7.472;2024-03-23T06:01:03;102225.53;;;6.07;nan
58973;BME280;44750;52.040;7.472;2024-03-23T06:06:04;102190.50;;;6.09;nan
58973;BME280;44750;52.040;7.472;2024-03-23T06:11:04;102145.06;;;6.04;nan
58973;BME280;44750;52.040;7.472;2024-03-23T06:16:05;102154.25;;;6.16;nan
58973;BME280;44750;52.040;7.472;2024-03-23T06:21:13;102117.75;;;6.12;nan
58973;BME280;44750;52.040;7.472;2024-03-23T06:26:13;102130.38;;;6.26;nan
58973;BME280;44750;52.040;7.472;2024-03-23T06:31:13;102060.59;;;6.08;nan
58973;BME280;44750;52.040;7.472;2024-03-23T06:36:14;102036.41;;;6.08;nan
58973;BME280;44750;52.040;7.472;2024-03-23T06:41:14;102058.72;;;6.25;nan
58973;BME280;44750;52.040;7.472;2024-03-23T06:46:14;102055.47;;;6.34;nan
58973;BME280;44750;52.040;7.472;2024-03-23T06:51:15;102045.91;;;6.44;nan
58973;BME280;44750;52.040;7.472;2024-03-23T06:56:15;102014.56;;;6.43;nan
58973;BME280;44750;52.040;7.472;2024-03-23T07:01:15;102036.72;;;6.63;nan
58973;BME280;44750;52.040;7.472;2024-03-23T07:06:15;102109.00;;;7.12;nan
58973;BME280;44750;52.040;7.472;2024-03-23T07:11:22;102073.03;;;7.28;nan
58973;BME280;44750;52.040;7.472;2024-03-23T07:16:22;102009.25;;;7.28;nan
58973;BME280;44750;52.040;7.472;2024-03-23T07:21:23;101934.69;;;7.29;nan
58973;BME280;44750;52.040;7.472;2024-03-23T15:17:24;99077.38;;;7.98;100.00
58973;BME280;44750;52.040;7.472;2024-03-23T15:22:25;99162.31;;;7.85;100.00
58973;BME280;44750;52.040;7.472;2024-03-23T15:27:25;99143.63;;;7.28;100.00
58973;BME280;44750;52.040;7.472;2024-03-23T15:32:25;99176.75;;;6.95;100.00
58973;BME280;44750;52.040;7.472;2024-03-23T15:37:25;99182.59;;;6.66;100.00
58973;BME280;44750;52.040;7.472;2024-03-23T15:42:25;99246.22;;;7.08;100.00
58973;BME280;44750;52.040;7.472;2024-03-23T15:47:26;99324.28;;;7.99;100.00
58973;BME280;44750;52.040;7.472;2024-03-23T15:57:26;99287.53;;;8.23;nan
58973;BME280;44750;52.040;7.472;2024-03-23T16:02:26;99256.38;;;8.03;nan
58973;BME280;44750;52.040;7.472;2024-03-23T16:07:27;99223.28;;;7.70;nan
58973;BME280;44750;52.040;7.472;2024-03-23T16:12:27;99229.72;;;7.44;nan
58973;BME280;44750;52.040;7.472;2024-03-23T16:17:27;99267.56;;;7.67;nan
58973;BME280;44750;52.040;7.472;2024-03-23T16:22:27;99297.34;;;7.99;nan
58973;BME280;44750;52.040;7.472;2024-03-23T16:27:27;99263.50;;;7.96;nan
58973;BME280;44750;52.040;7.472;2024-03-23T16:32:28;99212.88;;;7.67;nan
58973;BME280;44750;52.040;7.472;2024-03-23T16:37:28;99190.34;;;7.60;nan
58973;BME280;44750;52.040;7.472;2024-03-23T16:42:28;99169.16;;;7.40;nan
58973;BME280;44750;52.040;7.472;2024-03-23T16:47:28;99152.69;;;7.35;nan
58973;BME280;44750;52.040;7.472;2024-03-23T16:52:29;99160.09;;;7.41;nan
58973;BME280;44750;52.040;7.472;2024-03-23T16:57:29;99154.84;;;7.40;nan
58973;BME280;44750;52.040;7.472;2024-03-23T17:02:29;99122.75;;;7.30;nan
58973;BME280;44750;52.040;7.472;2024-03-23T17:07:31;99137.88;;;7.31;nan
58973;BME280;44750;52.040;7.472;2024-03-23T17:12:31;99116.06;;;7.09;nan
58973;BME280;44750;52.040;7.472;2024-03-23T17:17:31;99101.09;;;6.82;nan
58973;BME280;44750;52.040;7.472;2024-03-23T17:22:32;99120.41;;;6.69;nan
58973;BME280;44750;52.040;7.472;2024-03-23T17:27:32;99112.69;;;6.49;nan
58973;BME280;44750;52.040;7.472;2024-03-23T17:32:32;99113.16;;;6.36;nan
58973;BME280;44750;52.040;7.472;2024-03-23T17:37:32;99121.38;;;6.18;nan
58973;BME280;44750;52.040;7.472;2024-03-23T17:42:34;99145.50;;;6.10;nan
58973;BME280;44750;52.040;7.472;2024-03-23T17:47:35;99150.47;;;5.97;nan
58973;BME280;44750;52.040;7.472;2024-03-23T17:52:36;99181.72;;;5.98;nan
58973;BME280;44750;52.040;7.472;2024-03-23T17:57:37;99204.56;;;6.02;nan
58973;BME280;44750;52.040;7.472;2024-03-23T18:02:37;99230.97;;;6.07;nan
58973;BME280;44750;52.040;7.472;2024-03-23T18:07:38;99209.34;;;5.90;nan
58973;BME280;44750;52.040;7.472;2024-03-23T18:12:38;99225.25;;;5.83;nan
58973;BME280;44750;52.040;7.472;2024-03-23T18:17:38;99244.09;;;5.92;nan
58973;BME280;44750;52.040;7.472;2024-03-23T18:22:38;99220.38;;;5.79;nan
58973;BME280;44750;52.040;7.472;2024-03-23T18:27:39;99225.84;;;5.69;nan
58973;BME280;44750;52.040;7.472;2024-03-23T18:32:39;99217.56;;;5.62;nan
58973;BME280;44750;52.040;7.472;2024-03-23T18:37:39;99212.31;;;5.52;nan
58973;BME280;44750;52.040;7.472;2024-03-23T18:42:39;99219.00;;;5.48;nan
58973;BME280;44750;52.040;7.472;2024-03-23T18:47:40;99222.78;;;5.38;nan
58973;BME280;44750;52.040;7.472;2024-03-23T18:52:40;99214.31;;;5.24;nan
58973;BME280;44750;52.040;7.472;2024-03-23T18:57:40;99205.16;;;5.17;nan
58973;BME280;44750;52.040;7.472;2024-03-23T19:02:40;99209.09;;;5.05;nan
58973;BME280;44750;52.040;7.472;2024-03-23T19:07:40;99216.53;;;4.93;nan
58973;BME280;44750;52.040;7.472;2024-03-23T19:12:41;99241.75;;;5.00;nan
58973;BME280;44750;52.040;7.472;2024-03-23T19:17:41;99252.25;;;5.11;nan
58973;BME280;44750;52.040;7.472;2024-03-23T19:22:42;99247.66;;;5.22;nan
58973;BME280;44750;52.040;7.472;2024-03-23T19:27:42;99224.59;;;5.11;nan
58973;BME280;44750;52.040;7.472;2024-03-23T19:32:42;99223.81;;;5.18;nan
58973;BME280;44750;52.040;7.472;2024-03-23T19:37:42;99217.75;;;5.16;nan
58973;BME280;44750;52.040;7.472;2024-03-23T19:42:43;99206.34;;;4.96;nan
58973;BME280;44750;52.040;7.472;2024-03-23T19:47:43;99201.91;;;4.87;nan
58973;BME280;44750;52.040;7.472;2024-03-23T19:52:43;99185.91;;;4.77;nan
58973;BME280;44750;52.040;7.472;2024-03-23T19:57:43;99186.53;;;4.71;nan
58973;BME280;44750;52.040;7.472;2024-03-23T20:02:45;99177.41;;;4.64;nan
58973;BME280;44750;52.040;7.472;2024-03-23T20:07:45;99180.84;;;4.56;nan
58973;BME280;44750;52.040;7.472;2024-03-23T20:12:45;99172.72;;;4.48;nan
58973;BME280;44750;52.040;7.472;2024-03-23T20:17:46;99186.13;;;4.48;nan
58973;BME280;44750;52.040;7.472;2024-03-23T20:22:46;99182.75;;;4.46;nan
58973;BME280;44750;52.040;7.472;2024-03-23T20:27:46;99179.13;;;4.37;nan
58973;BME280;44750;52.040;7.472;2024-03-23T20:32:46;99170.72;;;4.32;nan
58973;BME280;44750;52.040;7.472;2024-03-23T20:37:46;99159.91;;;4.24;nan
58973;BME280;44750;52.040;7.472;2024-03-23T20:42:47;99162.72;;;4.22;nan
58973;BME280;44750;52.040;7.472;2024-03-23T20:47:47;99155.16;;;4.17;nan
58973;BME280;44750;52.040;7.472;2024-03-23T20:52:47;99149.72;;;4.09;nan
58973;BME280;44750;52.040;7.472;2024-03-23T20:57:47;99131.16;;;3.98;nan
58973;BME280;44750;52.040;7.472;2024-03-23T21:02:48;99123.84;;;4.00;nan
58973;BME280;44750;52.040;7.472;2024-03-23T21:07:48;99130.97;;;4.09;nan
58973;BME280;44750;52.040;7.472;2024-03-23T21:12:48;99124.22;;;4.05;nan
58973;BME280;44750;52.040;7.472;2024-03-23T21:17:48;99109.25;;;4.12;nan
58973;BME280;44750;52.040;7.472;2024-03-23T21:22:51;99110.63;;;4.16;nan
58973;BME280;44750;52.040;7.472;2024-03-23T21:27:52;99098.53;;;4.12;nan
58973;BME280;44750;52.040;7.472;2024-03-23T21:32:52;99085.06;;;4.04;nan
58973;BME280;44750;52.040;7.472;2024-03-23T21:37:52;99077.47;;;3.99;nan
58973;BME280;44750;52.040;7.472;2024-03-23T21:42:53;99068.91;;;3.96;nan
58973;BME280;44750;52.040;7.472;2024-03-23T21:47:53;99062.69;;;3.95;nan
58973;BME280;44750;52.040;7.472;2024-03-23T21:52:53;99057.59;;;4.02;nan
